Terminal Aerodrome Forecast
Issued by NWS Mt. Holly, NJ

Home | Current Version | Previous Version | Text Only | Print | Product List | Glossary On
Versions: 1 2 3 4 5 6 7 8 9 10 11 12 13 14 15 16 17 18 19 20 21 22 23 24 25 26 27 28 29 30 31 32 33 34 35 36 37 38 39 40 41 42
493
FTUS41 KPHI 060559
TAFABE
TAF
KABE 060559Z 0606/0706 VRB03KT P6SM BKN250
     FM061600 08007KT P6SM OVC120
     FM062100 10011KT 6SM -RA BKN030 OVC060
     FM062300 08008KT 4SM -RA BR OVC015
     FM070000 06005KT 1 1/2SM RASN BR OVC007
     FM070300 04007KT 2SM -RA BR OVC004=

USA.gov is the U.S. government's official web portal to all federal, state and local government web resources and services.